Sir Randy J — WDG7206 — position and weather

sailwx.info

Track history (hours):
 
Tides and Currents Weather Stations Pressure Air Temp Water Temp Dewpoint Dewpoint Depression Visibility Wind Speed Wind Dir Waves Ship Positions

Sir Randy J

Owner: Canton Marine Towing Co., Inc., Canton, MO. More information available from US FCC via Universal Licensing System and Coast Guard Vessel Documentation Center.

Last reported at 2017-Sep-19 22:30 UTC. Time now 2017-Sep-19 22:27 UTC.
Position N 38°58' W 090°26'.

Length 20 m.

Type: Towing. MMSI: 367564950.

Date/timePositionNaut miles runAvg speedWind from/ knotsBaromVisibWave heightAir tempDewpointWater temp
2017-Sep-19 22:30N 38°58' W 090°26'3 6.2
2017-Sep-19 22:00N 38°56' W 090°29'5 6.5
2017-Sep-19 21:16N 38°52' W 090°33'  
2017-Sep-14 05:03N 38°55' W 090°30'0 5.5
2017-Sep-14 04:57N 38°56' W 090°30'1 1.6
2017-Sep-14 04:30N 38°56' W 090°29'3 6.0
2017-Sep-14 04:00N 38°58' W 090°26'3 6.0
2017-Sep-14 03:30N 38°57' W 090°22'3 6.3
2017-Sep-14 03:00N 38°55' W 090°19'1 0.1
2017-Sep-13 14:38N 38°56' W 090°20'1 6.4
2017-Sep-13 14:29N 38°57' W 090°21'3 6.4
2017-Sep-13 14:00N 38°58' W 090°25'3 6.1
2017-Sep-13 13:30N 38°57' W 090°29'3 0.1
2017-Sep-12 02:26N 38°55' W 090°31'2 5.2
2017-Sep-12 02:00N 38°56' W 090°29'3 5.4
2017-Sep-12 01:30N 38°58' W 090°26'3 5.8
2017-Sep-12 01:00N 38°57' W 090°22'3 6.0
2017-Sep-12 00:30N 38°56' W 090°19'1 0.1
2017-Sep-11 06:30N 38°55' W 090°18'3 5.7
2017-Sep-11 06:00N 38°56' W 090°21'3 5.8
2017-Sep-11 05:30N 38°58' W 090°24'3 6.3
2017-Sep-11 05:00N 38°57' W 090°28'3 6.5
2017-Sep-11 04:30N 38°55' W 090°31'  
Track history (hours):
 
Tides and Currents Weather Stations Pressure Air Temp Water Temp Dewpoint Dewpoint Depression Visibility Wind Speed Wind Dir Waves Ship Positions

Sir Randy J

Owner: Canton Marine Towing Co., Inc., Canton, MO. More information available from US FCC via Universal Licensing System and Coast Guard Vessel Documentation Center.

Last reported at 2017-Sep-19 22:30 UTC. Time now 2017-Sep-19 22:27 UTC.
Position N 38°58' W 090°26'.

Length 20 m.

Type: Towing. MMSI: 367564950.

Date/timePositionNaut miles runAvg speedWind from/ knotsBaromVisibWave heightAir tempDewpointWater temp
2017-Sep-19 22:30N 38°58' W 090°26'3 6.2
2017-Sep-19 22:00N 38°56' W 090°29'5 6.5
2017-Sep-19 21:16N 38°52' W 090°33'  
2017-Sep-14 05:03N 38°55' W 090°30'0 5.5
2017-Sep-14 04:57N 38°56' W 090°30'1 1.6
2017-Sep-14 04:30N 38°56' W 090°29'3 6.0
2017-Sep-14 04:00N 38°58' W 090°26'3 6.0
2017-Sep-14 03:30N 38°57' W 090°22'3 6.3
2017-Sep-14 03:00N 38°55' W 090°19'1 0.1
2017-Sep-13 14:38N 38°56' W 090°20'1 6.4
2017-Sep-13 14:29N 38°57' W 090°21'3 6.4
2017-Sep-13 14:00N 38°58' W 090°25'3 6.1
2017-Sep-13 13:30N 38°57' W 090°29'3 0.1
2017-Sep-12 02:26N 38°55' W 090°31'2 5.2
2017-Sep-12 02:00N 38°56' W 090°29'3 5.4
2017-Sep-12 01:30N 38°58' W 090°26'3 5.8
2017-Sep-12 01:00N 38°57' W 090°22'3 6.0
2017-Sep-12 00:30N 38°56' W 090°19'1 0.1
2017-Sep-11 06:30N 38°55' W 090°18'3 5.7
2017-Sep-11 06:00N 38°56' W 090°21'3 5.8
2017-Sep-11 05:30N 38°58' W 090°24'3 6.3
2017-Sep-11 05:00N 38°57' W 090°28'3 6.5
2017-Sep-11 04:30N 38°55' W 090°31'  

Dump ship's entire track history